createdAt,value
2019-04-29T00:01:50.142Z,1.80
2019-04-29T00:04:19.043Z,1.97
2019-04-29T00:06:48.306Z,1.57
2019-04-29T00:09:18.397Z,2.03
2019-04-29T00:11:47.359Z,1.90
2019-04-29T00:14:16.422Z,2.07
2019-04-29T00:17:00.572Z,1.90
2019-04-29T00:19:48.646Z,1.80
2019-04-29T00:22:17.643Z,1.60
2019-04-29T00:24:46.526Z,2.47
2019-04-29T00:27:15.472Z,2.17
2019-04-29T00:29:44.427Z,2.10
2019-04-29T00:32:13.275Z,3.20
2019-04-29T00:34:42.363Z,2.03
2019-04-29T00:37:28.536Z,1.93
2019-04-29T00:40:15.430Z,1.70
2019-04-29T00:42:54.138Z,1.77
2019-04-29T00:45:23.881Z,2.03
2019-04-29T00:47:53.108Z,1.93
2019-04-29T00:50:22.092Z,1.87
2019-04-29T00:52:51.072Z,2.37
2019-04-29T00:55:22.920Z,2.30
2019-04-29T00:57:51.849Z,1.77
2019-04-29T01:00:32.928Z,1.67
2019-04-29T01:03:01.929Z,2.22
2019-04-29T01:05:31.186Z,2.12
2019-04-29T01:08:00.392Z,2.07
2019-04-29T01:10:29.726Z,2.30
2019-04-29T01:12:59.238Z,3.40
2019-04-29T01:15:28.198Z,2.70
2019-04-29T01:17:56.995Z,2.30
2019-04-29T01:20:25.995Z,2.12
2019-04-29T01:22:54.885Z,2.50
2019-04-29T01:25:23.779Z,1.97
2019-04-29T01:27:59.298Z,1.63
2019-04-29T01:31:11.417Z,1.60
2019-04-29T01:33:43.346Z,1.90
2019-04-29T01:36:35.624Z,1.63
2019-04-29T01:39:07.671Z,1.80
2019-04-29T01:41:43.936Z,1.95
2019-04-29T01:44:12.870Z,2.52
2019-04-29T01:46:41.754Z,2.53
2019-04-29T01:49:10.735Z,2.40
2019-04-29T01:51:39.572Z,2.30
2019-04-29T01:54:08.469Z,2.40
2019-04-29T01:56:37.526Z,2.23
2019-04-29T01:59:06.476Z,2.50
2019-04-29T02:01:35.473Z,2.27
2019-04-29T02:04:04.655Z,2.10
2019-04-29T02:06:33.678Z,3.47
2019-04-29T02:09:04.287Z,2.30
2019-04-29T02:11:33.232Z,1.90
2019-04-29T02:14:02.084Z,2.37
2019-04-29T02:16:31.022Z,2.67
2019-04-29T02:18:59.952Z,2.73
2019-04-29T02:21:28.891Z,2.17
2019-04-29T02:24:07.262Z,2.50
2019-04-29T02:26:36.300Z,2.50
2019-04-29T02:29:05.238Z,2.40
2019-04-29T02:31:42.483Z,2.33
2019-04-29T02:34:11.786Z,2.90
2019-04-29T02:36:40.826Z,2.33
2019-04-29T02:39:28.670Z,2.60
2019-04-29T02:42:15.617Z,3.40
2019-04-29T02:44:44.590Z,3.67
2019-04-29T02:47:13.747Z,1.83
2019-04-29T02:49:42.672Z,2.83
2019-04-29T02:52:11.529Z,2.40
2019-04-29T02:54:40.377Z,2.13
2019-04-29T02:57:32.795Z,1.67
2019-04-29T03:00:16.791Z,2.07
2019-04-29T03:03:00.615Z,2.40
2019-04-29T03:05:34.527Z,2.33
2019-04-29T03:08:03.526Z,2.03
2019-04-29T03:10:32.575Z,2.63
2019-04-29T03:13:01.538Z,2.20
2019-04-29T03:15:32.172Z,2.67
2019-04-29T03:18:02.090Z,2.53
2019-04-29T03:20:49.970Z,2.30
2019-04-29T03:23:20.711Z,2.97
2019-04-29T03:25:49.686Z,3.03
2019-04-29T03:28:18.561Z,2.83
2019-04-29T03:30:47.504Z,2.90
2019-04-29T03:33:16.300Z,3.20
2019-04-29T03:35:45.279Z,2.63
2019-04-29T03:38:14.134Z,2.23
2019-04-29T03:40:43.305Z,2.40
2019-04-29T03:43:12.195Z,2.30
2019-04-29T03:45:41.137Z,2.13
2019-04-29T03:48:10.184Z,2.10
2019-04-29T03:50:39.137Z,2.53
2019-04-29T03:53:08.086Z,2.63
2019-04-29T03:55:40.541Z,2.80
2019-04-29T03:58:07.857Z,2.57
2019-04-29T04:00:36.793Z,2.90
2019-04-29T04:03:22.717Z,3.37
2019-04-29T04:06:15.416Z,4.60
2019-04-29T04:09:04.779Z,2.70
2019-04-29T04:11:18.331Z,2.57
2019-04-29T04:13:47.074Z,3.17
2019-04-29T04:16:32.881Z,3.17
2019-04-29T04:19:06.917Z,2.97
2019-04-29T04:21:35.767Z,2.80
2019-04-29T04:24:04.805Z,3.40
2019-04-29T04:26:33.629Z,2.90
2019-04-29T04:29:02.410Z,2.97
2019-04-29T04:31:31.274Z,3.33
2019-04-29T04:34:00.173Z,2.93
2019-04-29T04:36:29.219Z,3.20
2019-04-29T04:38:58.010Z,2.67
2019-04-29T04:41:26.990Z,2.70
2019-04-29T04:43:55.894Z,3.03
2019-04-29T04:46:24.873Z,2.90
2019-04-29T04:48:53.733Z,3.00
2019-04-29T04:51:22.755Z,3.17
2019-04-29T04:53:51.681Z,2.70
2019-04-29T04:56:20.712Z,2.33
2019-04-29T04:58:49.682Z,2.73
2019-04-29T05:01:18.636Z,2.53
2019-04-29T05:03:47.657Z,2.93
2019-04-29T05:06:16.526Z,3.10
2019-04-29T05:08:45.513Z,4.10
2019-04-29T05:11:14.492Z,3.43
2019-04-29T05:13:43.499Z,3.17
2019-04-29T05:16:12.473Z,2.40
2019-04-29T05:18:41.414Z,2.67
2019-04-29T05:21:10.473Z,2.87
2019-04-29T05:23:41.634Z,2.67
2019-04-29T05:26:09.919Z,3.33
2019-04-29T05:28:38.834Z,2.87
2019-04-29T05:31:07.773Z,3.57
2019-04-29T05:33:37.181Z,2.65
2019-04-29T05:36:24.299Z,2.93
2019-04-29T05:38:56.927Z,3.07
2019-04-29T05:41:30.163Z,2.43
2019-04-29T05:44:06.830Z,2.40
2019-04-29T05:46:45.920Z,2.60
2019-04-29T05:49:17.841Z,3.10
2019-04-29T05:51:52.545Z,2.67
2019-04-29T05:54:21.664Z,3.10
2019-04-29T05:56:50.664Z,2.87
2019-04-29T05:59:19.662Z,3.37
2019-04-29T06:01:48.959Z,3.00
2019-04-29T06:04:18.330Z,3.20
2019-04-29T06:06:47.185Z,2.80
2019-04-29T06:09:17.013Z,2.67
2019-04-29T06:11:48.051Z,2.37
2019-04-29T06:14:16.930Z,2.70
2019-04-29T06:16:45.913Z,3.03
2019-04-29T06:19:14.876Z,2.90
2019-04-29T06:21:43.662Z,2.90
2019-04-29T06:24:12.477Z,2.67
2019-04-29T06:26:43.617Z,2.70
2019-04-29T06:29:12.301Z,3.17
2019-04-29T06:31:41.062Z,3.03
2019-04-29T06:34:10.063Z,2.50
2019-04-29T06:36:38.965Z,2.92
2019-04-29T06:39:07.957Z,3.27
2019-04-29T06:41:40.610Z,3.07
2019-04-29T06:44:15.806Z,2.57
2019-04-29T06:46:38.152Z,3.80
2019-04-29T06:49:10.344Z,2.98
2019-04-29T06:51:37.734Z,2.50
2019-04-29T06:54:06.640Z,2.97
2019-04-29T06:56:35.604Z,2.73
2019-04-29T06:59:07.536Z,2.30
2019-04-29T07:01:37.511Z,6.37
2019-04-29T07:04:05.885Z,2.60
2019-04-29T07:06:34.880Z,2.70
2019-04-29T07:09:05.039Z,2.57
2019-04-29T07:11:36.642Z,2.67
2019-04-29T07:14:04.671Z,2.33
2019-04-29T07:16:33.627Z,2.63
2019-04-29T07:19:02.569Z,2.13
2019-04-29T07:21:31.504Z,2.57
2019-04-29T07:24:00.425Z,2.60
2019-04-29T07:26:29.485Z,3.23
2019-04-29T07:28:58.536Z,3.73
2019-04-29T07:31:28.294Z,3.67
2019-04-29T07:33:59.107Z,3.07
2019-04-29T07:36:28.112Z,2.73
2019-04-29T07:38:57.121Z,2.57
2019-04-29T07:41:26.023Z,2.80
2019-04-29T07:43:55.154Z,2.47
2019-04-29T07:46:55.639Z,3.43
2019-04-29T07:49:12.690Z,2.57
2019-04-29T07:51:40.841Z,3.20
2019-04-29T07:54:11.052Z,2.50
2019-04-29T07:56:42.292Z,3.37
2019-04-29T07:59:11.469Z,3.20
2019-04-29T08:01:40.310Z,2.37
2019-04-29T08:04:09.156Z,2.10
2019-04-29T08:06:43.031Z,2.00
2019-04-29T08:09:09.892Z,2.20
2019-04-29T08:11:38.839Z,2.57
2019-04-29T08:14:07.750Z,1.93
2019-04-29T08:16:36.636Z,2.50
2019-04-29T08:19:05.698Z,2.63
2019-04-29T08:21:34.566Z,2.10
2019-04-29T08:24:03.426Z,2.20
2019-04-29T08:26:33.716Z,2.10
2019-04-29T08:29:03.226Z,1.97
2019-04-29T08:31:32.138Z,2.67
2019-04-29T08:34:01.168Z,2.10
2019-04-29T08:36:30.147Z,2.13
2019-04-29T08:39:08.251Z,2.10
2019-04-29T08:41:30.096Z,1.93
2019-04-29T08:44:27.347Z,2.17
2019-04-29T08:47:01.819Z,1.85
2019-04-29T08:49:30.751Z,2.50
2019-04-29T08:51:59.853Z,1.60
2019-04-29T08:54:28.816Z,2.40
2019-04-29T08:57:02.947Z,1.70
2019-04-29T08:59:28.387Z,2.10
2019-04-29T09:01:57.365Z,1.50
2019-04-29T09:04:28.540Z,1.30
2019-04-29T09:06:56.853Z,1.50
2019-04-29T09:09:29.174Z,1.90
2019-04-29T09:11:56.264Z,1.50
2019-04-29T09:14:25.155Z,1.23
2019-04-29T09:16:54.235Z,1.87
2019-04-29T09:19:23.064Z,1.87
2019-04-29T09:21:56.071Z,1.73
2019-04-29T09:24:24.956Z,1.67
2019-04-29T09:26:59.995Z,2.00
2019-04-29T09:29:35.061Z,1.73
2019-04-29T09:32:04.863Z,1.10
2019-04-29T09:34:33.977Z,1.40
2019-04-29T09:37:03.044Z,1.07
2019-04-29T09:39:43.100Z,1.60
2019-04-29T09:42:15.529Z,1.13
2019-04-29T09:45:02.396Z,1.23
2019-04-29T09:47:32.001Z,1.07
2019-04-29T09:50:01.002Z,1.00
2019-04-29T09:52:30.045Z,1.07
2019-04-29T09:54:59.597Z,1.07
2019-04-29T09:57:29.595Z,1.30
2019-04-29T10:00:05.100Z,1.20
2019-04-29T10:02:55.229Z,1.33
2019-04-29T10:05:41.938Z,1.13
2019-04-29T10:08:11.274Z,1.00
2019-04-29T10:10:40.221Z,1.00
2019-04-29T10:13:09.539Z,1.00
2019-04-29T10:16:02.042Z,1.20
2019-04-29T10:18:36.833Z,1.37
2019-04-29T10:21:08.786Z,0.90
2019-04-29T10:23:37.694Z,0.90
2019-04-29T10:26:06.762Z,1.10
2019-04-29T10:28:38.248Z,1.33
2019-04-29T10:31:08.161Z,1.15
2019-04-29T10:33:37.053Z,1.07
2019-04-29T10:36:07.036Z,0.87
2019-04-29T10:38:35.958Z,1.40
2019-04-29T10:41:23.173Z,1.13
2019-04-29T10:44:09.902Z,1.33
2019-04-29T10:46:54.136Z,1.13
2019-04-29T10:49:27.811Z,1.07
2019-04-29T10:51:58.163Z,0.87
2019-04-29T10:54:28.509Z,1.17
2019-04-29T10:56:57.518Z,0.80
2019-04-29T10:59:35.589Z,0.97
2019-04-29T11:02:33.378Z,1.10
2019-04-29T11:05:21.164Z,0.60
2019-04-29T11:07:51.943Z,1.10
2019-04-29T11:10:27.138Z,0.67
2019-04-29T11:12:56.490Z,0.97
2019-04-29T11:15:32.605Z,0.90
2019-04-29T11:18:03.710Z,0.90
2019-04-29T11:20:33.326Z,0.70
2019-04-29T11:23:14.948Z,0.80
2019-04-29T11:25:59.191Z,1.10
2019-04-29T11:28:29.355Z,1.10
2019-04-29T11:30:58.298Z,1.43
2019-04-29T11:33:35.620Z,0.80
2019-04-29T11:36:09.241Z,0.70
2019-04-29T11:38:40.061Z,1.10
2019-04-29T11:41:11.717Z,1.20
2019-04-29T11:43:40.072Z,1.20
2019-04-29T11:46:09.968Z,0.80
2019-04-29T11:48:40.387Z,1.27
2019-04-29T11:51:19.592Z,1.23
2019-04-29T11:53:48.549Z,1.83
2019-04-29T11:56:17.526Z,1.00
2019-04-29T11:58:53.114Z,1.10
2019-04-29T12:01:50.860Z,0.90
2019-04-29T12:04:33.528Z,0.93
2019-04-29T12:07:01.314Z,1.33
2019-04-29T12:09:32.194Z,1.00
2019-04-29T12:12:01.300Z,1.00
2019-04-29T12:14:39.533Z,1.20
2019-04-29T12:17:16.142Z,1.00
2019-04-29T12:19:45.831Z,1.07
2019-04-29T12:22:26.844Z,1.63
2019-04-29T12:24:45.379Z,1.12
2019-04-29T12:27:14.726Z,0.70
2019-04-29T12:29:48.853Z,1.07
2019-04-29T12:32:26.902Z,0.93
2019-04-29T12:35:21.551Z,0.90
2019-04-29T12:38:20.447Z,1.10
2019-04-29T12:41:20.846Z,1.00
2019-04-29T12:43:59.194Z,1.10
2019-04-29T12:46:31.091Z,1.47
2019-04-29T12:49:03.489Z,1.93
2019-04-29T12:51:30.671Z,1.10
2019-04-29T12:53:59.661Z,0.90
2019-04-29T12:56:36.966Z,1.00
2019-04-29T12:59:06.848Z,0.90
2019-04-29T13:02:04.576Z,1.03
2019-04-29T13:04:51.356Z,1.13
2019-04-29T13:07:32.731Z,1.10
2019-04-29T13:10:08.521Z,1.13
2019-04-29T13:12:39.883Z,1.20
2019-04-29T13:15:39.480Z,1.00
2019-04-29T13:18:16.898Z,0.97
2019-04-29T13:20:45.613Z,1.30
2019-04-29T13:23:19.520Z,1.57
2019-04-29T13:25:46.291Z,1.10
2019-04-29T13:28:29.501Z,1.70
2019-04-29T13:30:46.851Z,1.20
2019-04-29T13:33:16.781Z,1.47
2019-04-29T13:35:48.469Z,1.37
2019-04-29T13:38:16.684Z,1.27
2019-04-29T13:40:45.686Z,1.30
2019-04-29T13:43:14.652Z,1.20
2019-04-29T13:45:53.062Z,1.20
2019-04-29T13:48:55.885Z,1.33
2019-04-29T13:51:35.317Z,1.80
2019-04-29T13:53:59.091Z,1.80
2019-04-29T13:56:39.393Z,1.67
2019-04-29T13:59:01.290Z,2.07
2019-04-29T14:01:59.952Z,2.03
2019-04-29T14:04:30.255Z,2.00
2019-04-29T14:06:59.148Z,1.77
2019-04-29T14:09:28.161Z,1.43
2019-04-29T14:12:02.877Z,1.60
2019-04-29T14:14:28.355Z,2.30
2019-04-29T14:17:17.256Z,2.10
2019-04-29T14:19:40.837Z,1.63
2019-04-29T14:21:58.540Z,2.03
2019-04-29T14:24:27.408Z,1.57
2019-04-29T14:26:57.547Z,1.83
2019-04-29T14:29:28.352Z,1.37
2019-04-29T14:32:00.810Z,1.70
2019-04-29T14:34:36.683Z,2.00
2019-04-29T14:37:21.386Z,2.53
2019-04-29T14:39:37.771Z,2.07
2019-04-29T14:42:32.040Z,2.30
2019-04-29T14:45:08.968Z,1.90
2019-04-29T14:47:49.430Z,2.07
2019-04-29T14:50:20.740Z,2.07
2019-04-29T14:52:50.504Z,2.47
2019-04-29T14:55:24.714Z,2.20
2019-04-29T14:57:50.267Z,1.60
2019-04-29T15:00:31.368Z,1.93
2019-04-29T15:03:01.099Z,2.60
2019-04-29T15:05:32.924Z,2.33
2019-04-29T15:08:01.561Z,1.90
2019-04-29T15:10:32.856Z,2.40
2019-04-29T15:13:20.730Z,2.13
2019-04-29T15:16:04.836Z,2.60
2019-04-29T15:18:53.145Z,3.40
2019-04-29T15:21:47.077Z,2.63
2019-04-29T15:24:17.624Z,2.60
2019-04-29T15:26:46.648Z,2.80
2019-04-29T15:29:15.715Z,2.80
2019-04-29T15:31:47.013Z,3.70
2019-04-29T15:34:15.388Z,3.57
2019-04-29T15:36:44.473Z,3.47
2019-04-29T15:39:13.790Z,3.53
2019-04-29T15:41:42.991Z,4.50
2019-04-29T15:44:18.835Z,4.17
2019-04-29T15:46:46.666Z,4.17
2019-04-29T15:49:13.251Z,4.30
2019-04-29T15:51:44.120Z,3.80
2019-04-29T15:54:14.360Z,5.33
2019-04-29T15:56:43.569Z,4.27
2019-04-29T15:59:12.667Z,4.30
2019-04-29T16:01:42.294Z,3.73
2019-04-29T16:04:15.823Z,4.23
2019-04-29T16:07:06.692Z,4.63
2019-04-29T16:09:57.320Z,4.13
2019-04-29T16:12:40.256Z,5.27
2019-04-29T16:15:09.292Z,4.60
2019-04-29T16:17:39.406Z,4.60
2019-04-29T16:20:08.570Z,4.93
2019-04-29T16:25:11.209Z,4.67
2019-04-29T16:27:41.647Z,4.90
2019-04-29T16:30:10.567Z,4.20
2019-04-29T16:32:40.605Z,4.30
2019-04-29T16:35:10.711Z,4.57
2019-04-29T16:37:39.723Z,4.40
2019-04-29T16:40:09.079Z,4.73
2019-04-29T16:42:45.330Z,5.10
2019-04-29T16:45:14.640Z,4.87
2019-04-29T16:47:47.469Z,5.37
2019-04-29T16:50:15.068Z,5.30
2019-04-29T16:52:44.541Z,5.40
2019-04-29T16:55:13.582Z,5.03
2019-04-29T16:57:42.608Z,4.87
2019-04-29T17:00:14.772Z,5.60
2019-04-29T17:02:44.190Z,4.77
2019-04-29T17:05:13.617Z,5.63
2019-04-29T17:07:42.594Z,5.63
2019-04-29T17:10:21.110Z,5.03
2019-04-29T17:12:51.262Z,5.40
2019-04-29T17:15:25.125Z,4.83
2019-04-29T17:17:50.962Z,4.60
2019-04-29T17:20:20.286Z,4.70
2019-04-29T17:22:50.538Z,4.67
2019-04-29T17:25:19.501Z,4.73
2019-04-29T17:28:25.699Z,5.27
2019-04-29T17:31:12.821Z,4.20
2019-04-29T17:33:50.957Z,4.33
2019-04-29T17:35:14.117Z,5.10
2019-04-29T17:36:23.807Z,9.53
2019-04-29T17:38:51.081Z,4.87
2019-04-29T17:41:20.077Z,4.20
2019-04-29T17:44:10.531Z,4.90
2019-04-29T17:46:48.263Z,6.50
2019-04-29T17:49:35.126Z,5.27
2019-04-29T17:52:06.780Z,5.40
2019-04-29T17:54:39.946Z,5.00
2019-04-29T17:57:27.926Z,5.57
2019-04-29T18:00:05.163Z,5.70
2019-04-29T18:02:57.359Z,5.60
2019-04-29T18:05:53.079Z,5.40
2019-04-29T18:08:35.625Z,5.77
2019-04-29T18:11:08.138Z,5.13
2019-04-29T18:13:35.886Z,4.70
2019-04-29T18:16:17.317Z,4.97
2019-04-29T18:18:49.191Z,7.00
2019-04-29T18:21:43.560Z,5.77
2019-04-29T18:24:15.430Z,5.67
2019-04-29T18:26:57.765Z,5.07
2019-04-29T18:29:28.398Z,5.37
2019-04-29T18:32:00.518Z,5.77
2019-04-29T18:34:29.306Z,5.60
2019-04-29T18:37:00.376Z,6.13
2019-04-29T18:39:31.673Z,6.70
2019-04-29T18:42:03.330Z,6.37
2019-04-29T18:44:31.228Z,6.33
2019-04-29T18:47:00.099Z,6.00
2019-04-29T18:49:29.014Z,4.97
2019-04-29T18:52:02.031Z,7.27
2019-04-29T18:54:28.657Z,5.50
2019-04-29T18:56:57.562Z,5.50
2019-04-29T18:59:33.644Z,5.53
2019-04-29T19:02:00.995Z,5.80
2019-04-29T19:04:42.302Z,6.17
2019-04-29T19:07:11.322Z,5.70
2019-04-29T19:09:41.604Z,5.57
2019-04-29T19:12:10.639Z,5.90
2019-04-29T19:14:39.613Z,6.67
2019-04-29T19:17:08.522Z,5.33
2019-04-29T19:19:39.279Z,6.10
2019-04-29T19:22:09.493Z,5.43
2019-04-29T19:24:38.675Z,4.33
2019-04-29T19:27:09.917Z,5.28
2019-04-29T19:29:38.837Z,4.67
2019-04-29T19:32:08.885Z,5.40
2019-04-29T19:34:42.780Z,4.70
2019-04-29T19:37:08.388Z,4.90
2019-04-29T19:39:37.331Z,4.73
2019-04-29T19:42:06.322Z,4.93
2019-04-29T19:44:36.760Z,5.13
2019-04-29T19:47:05.766Z,4.23
2019-04-29T19:49:36.042Z,4.87
2019-04-29T19:52:05.166Z,4.97
2019-04-29T19:54:34.211Z,4.83
2019-04-29T19:57:06.123Z,4.57
2019-04-29T19:59:36.121Z,5.00
2019-04-29T20:02:09.560Z,6.17
2019-04-29T20:04:40.917Z,5.23
2019-04-29T20:07:11.002Z,5.47
2019-04-29T20:09:41.548Z,5.77
2019-04-29T20:12:13.302Z,6.07
2019-04-29T20:14:42.373Z,6.33
2019-04-29T20:17:31.688Z,6.03
2019-04-29T20:20:35.028Z,5.90
2019-04-29T20:23:02.946Z,5.90
2019-04-29T20:25:37.840Z,6.53
2019-04-29T20:28:05.820Z,6.90
2019-04-29T20:30:34.637Z,5.87
2019-04-29T20:33:09.538Z,7.13
2019-04-29T20:35:35.768Z,7.63
2019-04-29T20:38:05.622Z,8.30
2019-04-29T20:40:38.842Z,8.67
2019-04-29T20:43:08.361Z,8.73
2019-04-29T20:45:36.833Z,9.30
2019-04-29T20:48:06.381Z,9.27
2019-04-29T20:50:35.735Z,9.20
2019-04-29T20:53:22.604Z,9.40
2019-04-29T20:55:51.901Z,9.53
2019-04-29T20:58:23.566Z,11.47
2019-04-29T21:00:51.703Z,10.23
2019-04-29T21:03:29.976Z,9.57
2019-04-29T21:06:02.197Z,8.50
2019-04-29T21:08:25.841Z,8.70
2019-04-29T21:10:56.475Z,8.67
2019-04-29T21:13:33.759Z,9.23
2019-04-29T21:16:16.483Z,10.53
2019-04-29T21:18:52.666Z,9.80
2019-04-29T21:21:16.203Z,9.77
2019-04-29T21:23:48.105Z,10.17
2019-04-29T21:26:16.455Z,10.53
2019-04-29T21:28:47.073Z,10.37
2019-04-29T21:31:19.817Z,9.93
2019-04-29T21:33:50.754Z,9.70
2019-04-29T21:36:30.704Z,9.63
2019-04-29T21:39:06.135Z,11.10
2019-04-29T21:41:43.144Z,10.43
2019-04-29T21:44:12.039Z,10.43
2019-04-29T21:46:40.941Z,10.90
2019-04-29T21:49:11.741Z,11.50
2019-04-29T21:51:41.799Z,11.53
2019-04-29T21:54:14.321Z,12.20
2019-04-29T21:56:46.270Z,13.20
2019-04-29T21:59:12.563Z,13.43
2019-04-29T22:01:41.647Z,14.17
2019-04-29T22:04:10.601Z,15.23
2019-04-29T22:06:39.479Z,15.37
2019-04-29T22:09:11.207Z,15.63
2019-04-29T22:11:43.469Z,16.70
2019-04-29T22:14:16.470Z,16.67
2019-04-29T22:16:54.281Z,15.33
2019-04-29T22:19:26.763Z,15.47
2019-04-29T22:22:01.460Z,14.97
2019-04-29T22:24:28.843Z,14.23
2019-04-29T22:27:04.114Z,15.27
2019-04-29T22:29:32.039Z,15.13
2019-04-29T22:31:59.578Z,17.90
2019-04-29T22:34:29.158Z,18.50
2019-04-29T22:37:01.020Z,21.00
2019-04-29T22:39:30.166Z,19.93
2019-04-29T22:42:18.302Z,19.80
2019-04-29T22:44:47.257Z,20.60
2019-04-29T22:47:17.391Z,20.97
2019-04-29T22:49:46.808Z,21.50
2019-04-29T22:52:17.520Z,22.53
2019-04-29T22:54:46.397Z,22.27
2019-04-29T22:57:15.682Z,20.93
2019-04-29T22:59:45.386Z,21.37
2019-04-29T23:02:15.761Z,19.97
2019-04-29T23:04:49.095Z,21.33
2019-04-29T23:07:17.620Z,20.73
2019-04-29T23:09:46.268Z,21.40
2019-04-29T23:12:18.786Z,20.53
2019-04-29T23:14:47.864Z,22.57
2019-04-29T23:17:16.791Z,21.27
2019-04-29T23:19:50.647Z,21.83
2019-04-29T23:22:42.969Z,21.57
2019-04-29T23:25:21.886Z,21.80
2019-04-29T23:27:52.715Z,21.83
2019-04-29T23:30:24.952Z,22.50
2019-04-29T23:32:53.856Z,20.97
2019-04-29T23:35:24.761Z,21.90
2019-04-29T23:37:58.717Z,22.60
2019-04-29T23:40:24.293Z,23.00
2019-04-29T23:42:53.220Z,22.07
2019-04-29T23:45:22.411Z,22.40
2019-04-29T23:47:51.418Z,22.07
2019-04-29T23:50:20.442Z,23.40
2019-04-29T23:52:51.825Z,22.97
2019-04-29T23:55:20.506Z,20.17
2019-04-29T23:58:02.840Z,20.37
